sensor_id;sensor_type;location;lat;lon;timestamp;P1;durP1;ratioP1;P2;durP2;ratioP2
75285;SDS011;63879;46.064;14.532;2022-11-20T07:01:23;0.82;;;0.30;;
75285;SDS011;63879;46.064;14.532;2022-11-20T07:03:49;0.43;;;0.30;;
75285;SDS011;63879;46.064;14.532;2022-11-20T07:06:15;1.02;;;0.40;;
75285;SDS011;63879;46.064;14.532;2022-11-20T07:08:41;0.82;;;0.32;;
75285;SDS011;63879;46.064;14.532;2022-11-20T07:11:06;1.23;;;0.40;;
75285;SDS011;63879;46.064;14.532;2022-11-20T07:13:32;1.10;;;0.77;;
75285;SDS011;63879;46.064;14.532;2022-11-20T07:16:01;1.38;;;0.50;;
75285;SDS011;63879;46.064;14.532;2022-11-20T07:18:28;0.98;;;0.50;;
75285;SDS011;63879;46.064;14.532;2022-11-20T07:20:54;0.57;;;0.28;;
75285;SDS011;63879;46.064;14.532;2022-11-20T07:23:19;1.73;;;0.60;;
75285;SDS011;63879;46.064;14.532;2022-11-20T07:25:44;1.55;;;0.55;;
75285;SDS011;63879;46.064;14.532;2022-11-20T07:28:10;0.63;;;0.33;;
75285;SDS011;63879;46.064;14.532;2022-11-20T07:30:35;1.42;;;0.30;;
75285;SDS011;63879;46.064;14.532;2022-11-20T07:33:01;1.15;;;0.30;;
75285;SDS011;63879;46.064;14.532;2022-11-20T07:35:26;1.17;;;0.30;;
75285;SDS011;63879;46.064;14.532;2022-11-20T07:37:52;1.00;;;0.40;;
75285;SDS011;63879;46.064;14.532;2022-11-20T07:40:17;0.77;;;0.30;;
75285;SDS011;63879;46.064;14.532;2022-11-20T07:42:53;0.60;;;0.30;;
75285;SDS011;63879;46.064;14.532;2022-11-20T07:45:19;1.17;;;0.43;;
75285;SDS011;63879;46.064;14.532;2022-11-20T07:47:45;0.80;;;0.43;;
75285;SDS011;63879;46.064;14.532;2022-11-20T07:50:11;1.20;;;0.40;;
75285;SDS011;63879;46.064;14.532;2022-11-20T07:52:37;2.17;;;0.90;;
75285;SDS011;63879;46.064;14.532;2022-11-20T07:55:02;1.60;;;0.70;;
75285;SDS011;63879;46.064;14.532;2022-11-20T07:57:28;1.58;;;0.60;;
75285;SDS011;63879;46.064;14.532;2022-11-20T07:59:53;1.52;;;0.73;;
75285;SDS011;63879;46.064;14.532;2022-11-20T08:02:19;1.60;;;0.90;;
75285;SDS011;63879;46.064;14.532;2022-11-20T08:04:44;1.00;;;0.60;;
75285;SDS011;63879;46.064;14.532;2022-11-20T08:07:09;1.20;;;0.50;;
75285;SDS011;63879;46.064;14.532;2022-11-20T08:09:35;2.10;;;0.80;;
75285;SDS011;63879;46.064;14.532;2022-11-20T08:12:00;2.83;;;1.83;;
75285;SDS011;63879;46.064;14.532;2022-11-20T08:14:44;1.67;;;0.95;;
75285;SDS011;63879;46.064;14.532;2022-11-20T08:17:09;2.70;;;1.17;;
75285;SDS011;63879;46.064;14.532;2022-11-20T08:19:35;1.30;;;0.52;;
75285;SDS011;63879;46.064;14.532;2022-11-20T08:22:00;2.03;;;1.00;;
75285;SDS011;63879;46.064;14.532;2022-11-20T08:24:25;1.00;;;0.50;;
75285;SDS011;63879;46.064;14.532;2022-11-20T08:26:51;1.25;;;0.60;;
75285;SDS011;63879;46.064;14.532;2022-11-20T08:29:17;1.15;;;0.80;;
75285;SDS011;63879;46.064;14.532;2022-11-20T08:31:43;1.48;;;0.60;;
75285;SDS011;63879;46.064;14.532;2022-11-20T08:34:08;0.77;;;0.50;;
75285;SDS011;63879;46.064;14.532;2022-11-20T08:36:33;1.20;;;0.63;;
75285;SDS011;63879;46.064;14.532;2022-11-20T08:39:00;1.50;;;0.57;;
75285;SDS011;63879;46.064;14.532;2022-11-20T08:41:25;1.20;;;0.52;;
75285;SDS011;63879;46.064;14.532;2022-11-20T08:44:04;1.30;;;0.50;;
75285;SDS011;63879;46.064;14.532;2022-11-20T08:46:41;1.65;;;0.65;;
75285;SDS011;63879;46.064;14.532;2022-11-20T08:49:09;1.92;;;0.60;;
75285;SDS011;63879;46.064;14.532;2022-11-20T08:51:36;1.77;;;0.63;;
75285;SDS011;63879;46.064;14.532;2022-11-20T08:54:02;1.00;;;0.70;;
75285;SDS011;63879;46.064;14.532;2022-11-20T08:56:27;1.30;;;0.70;;
75285;SDS011;63879;46.064;14.532;2022-11-20T08:58:53;1.08;;;0.60;;
75285;SDS011;63879;46.064;14.532;2022-11-20T09:01:19;0.95;;;0.60;;
75285;SDS011;63879;46.064;14.532;2022-11-20T09:03:45;1.92;;;0.73;;
75285;SDS011;63879;46.064;14.532;2022-11-20T09:06:11;1.55;;;0.77;;
75285;SDS011;63879;46.064;14.532;2022-11-20T09:08:36;0.68;;;0.40;;
75285;SDS011;63879;46.064;14.532;2022-11-20T09:11:02;1.75;;;0.70;;
75285;SDS011;63879;46.064;14.532;2022-11-20T09:13:28;0.90;;;0.52;;
75285;SDS011;63879;46.064;14.532;2022-11-20T09:15:54;0.85;;;0.40;;
75285;SDS011;63879;46.064;14.532;2022-11-20T09:18:21;1.63;;;0.63;;
75285;SDS011;63879;46.064;14.532;2022-11-20T09:20:46;1.90;;;0.70;;
75285;SDS011;63879;46.064;14.532;2022-11-20T09:23:12;0.80;;;0.50;;
75285;SDS011;63879;46.064;14.532;2022-11-20T09:25:37;1.00;;;0.50;;
75285;SDS011;63879;46.064;14.532;2022-11-20T09:28:03;1.10;;;0.60;;
75285;SDS011;63879;46.064;14.532;2022-11-20T09:30:28;0.82;;;0.40;;
75285;SDS011;63879;46.064;14.532;2022-11-20T09:32:53;2.10;;;0.70;;
75285;SDS011;63879;46.064;14.532;2022-11-20T09:35:19;1.92;;;0.90;;
75285;SDS011;63879;46.064;14.532;2022-11-20T09:37:45;2.20;;;0.90;;
75285;SDS011;63879;46.064;14.532;2022-11-20T09:40:18;2.08;;;1.02;;
75285;SDS011;63879;46.064;14.532;2022-11-20T09:48:32;1.50;;;1.00;;
75285;SDS011;63879;46.064;14.532;2022-11-20T09:51:06;1.70;;;0.88;;
75285;SDS011;63879;46.064;14.532;2022-11-20T09:56:18;3.70;;;1.77;;
75285;SDS011;63879;46.064;14.532;2022-11-20T09:58:44;1.75;;;1.30;;
75285;SDS011;63879;46.064;14.532;2022-11-20T10:01:18;1.75;;;1.00;;
75285;SDS011;63879;46.064;14.532;2022-11-20T10:03:55;2.90;;;1.20;;
75285;SDS011;63879;46.064;14.532;2022-11-20T10:06:26;2.15;;;1.23;;
75285;SDS011;63879;46.064;14.532;2022-11-20T10:11:39;1.92;;;1.20;;
75285;SDS011;63879;46.064;14.532;2022-11-20T10:27:40;2.78;;;1.42;;
75285;SDS011;63879;46.064;14.532;2022-11-20T10:30:11;2.38;;;1.77;;
75285;SDS011;63879;46.064;14.532;2022-11-20T10:32:48;2.58;;;1.33;;
75285;SDS011;63879;46.064;14.532;2022-11-20T10:37:49;2.70;;;2.17;;
75285;SDS011;63879;46.064;14.532;2022-11-20T10:46:05;3.28;;;1.80;;
75285;SDS011;63879;46.064;14.532;2022-11-20T10:48:35;2.00;;;1.42;;
75285;SDS011;63879;46.064;14.532;2022-11-20T10:53:56;2.97;;;1.65;;
75285;SDS011;63879;46.064;14.532;2022-11-20T11:02:01;2.63;;;1.77;;
75285;SDS011;63879;46.064;14.532;2022-11-20T11:07:04;2.70;;;1.50;;
75285;SDS011;63879;46.064;14.532;2022-11-20T11:09:38;1.85;;;1.50;;
75285;SDS011;63879;46.064;14.532;2022-11-20T11:12:07;2.88;;;1.63;;
75285;SDS011;63879;46.064;14.532;2022-11-20T11:14:41;2.67;;;1.67;;
75285;SDS011;63879;46.064;14.532;2022-11-20T11:17:21;3.22;;;2.03;;
75285;SDS011;63879;46.064;14.532;2022-11-20T11:20:20;2.92;;;1.70;;
75285;SDS011;63879;46.064;14.532;2022-11-20T11:25:30;2.50;;;1.45;;
75285;SDS011;63879;46.064;14.532;2022-11-20T11:28:21;1.90;;;1.10;;
75285;SDS011;63879;46.064;14.532;2022-11-20T11:30:45;3.00;;;1.63;;
75285;SDS011;63879;46.064;14.532;2022-11-20T11:33:17;2.78;;;1.38;;
75285;SDS011;63879;46.064;14.532;2022-11-20T11:35:48;2.65;;;1.65;;
75285;SDS011;63879;46.064;14.532;2022-11-20T11:38:22;2.15;;;0.98;;
75285;SDS011;63879;46.064;14.532;2022-11-20T11:40:53;2.50;;;0.73;;
75285;SDS011;63879;46.064;14.532;2022-11-20T11:43:20;1.75;;;0.80;;
75285;SDS011;63879;46.064;14.532;2022-11-20T11:46:25;2.60;;;1.67;;
75285;SDS011;63879;46.064;14.532;2022-11-20T11:51:28;2.67;;;0.98;;
75285;SDS011;63879;46.064;14.532;2022-11-20T11:53:57;2.15;;;1.10;;
75285;SDS011;63879;46.064;14.532;2022-11-20T11:56:23;1.67;;;0.80;;
75285;SDS011;63879;46.064;14.532;2022-11-20T11:58:50;2.47;;;1.13;;
75285;SDS011;63879;46.064;14.532;2022-11-20T12:01:29;2.10;;;1.13;;
75285;SDS011;63879;46.064;14.532;2022-11-20T12:06:43;2.88;;;1.42;;
75285;SDS011;63879;46.064;14.532;2022-11-20T12:09:10;2.75;;;1.45;;
75285;SDS011;63879;46.064;14.532;2022-11-20T12:11:43;2.08;;;1.25;;
75285;SDS011;63879;46.064;14.532;2022-11-20T12:14:14;2.08;;;1.08;;
75285;SDS011;63879;46.064;14.532;2022-11-20T12:16:44;2.78;;;1.38;;
75285;SDS011;63879;46.064;14.532;2022-11-20T12:19:11;3.35;;;1.42;;
75285;SDS011;63879;46.064;14.532;2022-11-20T12:24:25;2.67;;;1.10;;
75285;SDS011;63879;46.064;14.532;2022-11-20T12:26:58;2.42;;;1.20;;
75285;SDS011;63879;46.064;14.532;2022-11-20T12:29:32;2.50;;;0.90;;
75285;SDS011;63879;46.064;14.532;2022-11-20T12:40:57;2.25;;;1.00;;
75285;SDS011;63879;46.064;14.532;2022-11-20T12:43:28;2.05;;;0.95;;
75285;SDS011;63879;46.064;14.532;2022-11-20T12:48:53;1.63;;;0.80;;
75285;SDS011;63879;46.064;14.532;2022-11-20T12:57:12;2.38;;;1.10;;
75285;SDS011;63879;46.064;14.532;2022-11-20T13:02:41;2.00;;;1.00;;
75285;SDS011;63879;46.064;14.532;2022-11-20T13:07:41;1.30;;;0.80;;
75285;SDS011;63879;46.064;14.532;2022-11-20T13:13:31;2.50;;;0.95;;
75285;SDS011;63879;46.064;14.532;2022-11-20T13:16:23;1.92;;;0.93;;
75285;SDS011;63879;46.064;14.532;2022-11-20T13:19:11;3.70;;;1.10;;
75285;SDS011;63879;46.064;14.532;2022-11-20T13:21:39;1.63;;;0.80;;
75285;SDS011;63879;46.064;14.532;2022-11-20T13:26:31;2.20;;;1.05;;
75285;SDS011;63879;46.064;14.532;2022-11-20T13:29:18;1.30;;;0.70;;
75285;SDS011;63879;46.064;14.532;2022-11-20T13:31:45;1.80;;;0.98;;
75285;SDS011;63879;46.064;14.532;2022-11-20T13:34:12;2.80;;;1.27;;
75285;SDS011;63879;46.064;14.532;2022-11-20T13:36:48;3.42;;;1.23;;
75285;SDS011;63879;46.064;14.532;2022-11-20T13:39:51;3.25;;;1.20;;
75285;SDS011;63879;46.064;14.532;2022-11-20T13:44:39;2.97;;;1.50;;
75285;SDS011;63879;46.064;14.532;2022-11-20T13:47:24;2.33;;;1.10;;
75285;SDS011;63879;46.064;14.532;2022-11-20T13:49:51;2.25;;;0.82;;
75285;SDS011;63879;46.064;14.532;2022-11-20T13:55:01;1.95;;;0.95;;
75285;SDS011;63879;46.064;14.532;2022-11-20T14:00:23;2.75;;;1.33;;
75285;SDS011;63879;46.064;14.532;2022-11-20T14:06:01;4.97;;;1.85;;
75285;SDS011;63879;46.064;14.532;2022-11-20T14:08:32;4.00;;;1.98;;
75285;SDS011;63879;46.064;14.532;2022-11-20T14:13:28;2.55;;;1.08;;
75285;SDS011;63879;46.064;14.532;2022-11-20T14:15:56;3.00;;;1.13;;
75285;SDS011;63879;46.064;14.532;2022-11-20T14:18:22;2.10;;;1.35;;
75285;SDS011;63879;46.064;14.532;2022-11-20T14:20:47;2.30;;;1.45;;
75285;SDS011;63879;46.064;14.532;2022-11-20T14:23:22;3.53;;;1.80;;
75285;SDS011;63879;46.064;14.532;2022-11-20T14:25:48;2.17;;;1.30;;
75285;SDS011;63879;46.064;14.532;2022-11-20T14:28:20;3.00;;;2.07;;
75285;SDS011;63879;46.064;14.532;2022-11-20T14:30:52;2.83;;;1.58;;
75285;SDS011;63879;46.064;14.532;2022-11-20T14:33:17;3.67;;;2.10;;
75285;SDS011;63879;46.064;14.532;2022-11-20T14:38:14;3.50;;;1.58;;
75285;SDS011;63879;46.064;14.532;2022-11-20T14:40:41;3.28;;;1.65;;
75285;SDS011;63879;46.064;14.532;2022-11-20T14:43:17;3.45;;;2.17;;
75285;SDS011;63879;46.064;14.532;2022-11-20T14:45:52;4.35;;;1.75;;
75285;SDS011;63879;46.064;14.532;2022-11-20T14:48:22;3.85;;;2.03;;
75285;SDS011;63879;46.064;14.532;2022-11-20T14:50:50;4.63;;;2.42;;
75285;SDS011;63879;46.064;14.532;2022-11-20T14:53:21;7.45;;;3.55;;
75285;SDS011;63879;46.064;14.532;2022-11-20T14:55:53;6.55;;;3.47;;
75285;SDS011;63879;46.064;14.532;2022-11-20T14:58:21;3.78;;;2.33;;
75285;SDS011;63879;46.064;14.532;2022-11-20T15:00:55;4.35;;;2.65;;
75285;SDS011;63879;46.064;14.532;2022-11-20T15:03:22;5.22;;;3.10;;
75285;SDS011;63879;46.064;14.532;2022-11-20T15:05:48;4.53;;;2.85;;
75285;SDS011;63879;46.064;14.532;2022-11-20T15:08:14;4.10;;;2.70;;
75285;SDS011;63879;46.064;14.532;2022-11-20T15:10:48;4.47;;;2.88;;
75285;SDS011;63879;46.064;14.532;2022-11-20T15:13:16;5.50;;;2.80;;
75285;SDS011;63879;46.064;14.532;2022-11-20T15:15:46;4.47;;;2.83;;
75285;SDS011;63879;46.064;14.532;2022-11-20T15:18:17;3.83;;;2.60;;
75285;SDS011;63879;46.064;14.532;2022-11-20T15:20:47;4.07;;;2.92;;
75285;SDS011;63879;46.064;14.532;2022-11-20T15:23:14;5.35;;;3.20;;
75285;SDS011;63879;46.064;14.532;2022-11-20T15:25:42;6.25;;;3.45;;
75285;SDS011;63879;46.064;14.532;2022-11-20T15:30:54;4.50;;;3.20;;
75285;SDS011;63879;46.064;14.532;2022-11-20T15:33:21;5.20;;;2.97;;
75285;SDS011;63879;46.064;14.532;2022-11-20T15:35:46;5.68;;;3.75;;
75285;SDS011;63879;46.064;14.532;2022-11-20T15:38:12;6.50;;;3.97;;
75285;SDS011;63879;46.064;14.532;2022-11-20T15:40:37;6.07;;;3.67;;
75285;SDS011;63879;46.064;14.532;2022-11-20T15:43:03;6.95;;;3.70;;
75285;SDS011;63879;46.064;14.532;2022-11-20T15:45:42;5.75;;;3.22;;
75285;SDS011;63879;46.064;14.532;2022-11-20T15:48:19;5.75;;;3.00;;
75285;SDS011;63879;46.064;14.532;2022-11-20T15:53:35;5.50;;;3.08;;
75285;SDS011;63879;46.064;14.532;2022-11-20T15:56:09;5.90;;;3.17;;
75285;SDS011;63879;46.064;14.532;2022-11-20T15:58:37;8.82;;;3.53;;
75285;SDS011;63879;46.064;14.532;2022-11-20T16:01:03;5.50;;;3.10;;
75285;SDS011;63879;46.064;14.532;2022-11-20T16:03:28;5.50;;;3.50;;
75285;SDS011;63879;46.064;14.532;2022-11-20T16:05:55;4.50;;;2.78;;
75285;SDS011;63879;46.064;14.532;2022-11-20T16:08:20;5.90;;;2.97;;
75285;SDS011;63879;46.064;14.532;2022-11-20T16:10:46;5.87;;;2.83;;
75285;SDS011;63879;46.064;14.532;2022-11-20T16:13:15;4.07;;;2.55;;
75285;SDS011;63879;46.064;14.532;2022-11-20T16:16:05;5.68;;;3.22;;
75285;SDS011;63879;46.064;14.532;2022-11-20T16:18:31;5.82;;;3.00;;
75285;SDS011;63879;46.064;14.532;2022-11-20T16:20:57;5.88;;;3.55;;
75285;SDS011;63879;46.064;14.532;2022-11-20T16:23:23;6.22;;;2.97;;
75285;SDS011;63879;46.064;14.532;2022-11-20T16:25:48;5.68;;;2.47;;
75285;SDS011;63879;46.064;14.532;2022-11-20T16:28:15;4.82;;;3.00;;
75285;SDS011;63879;46.064;14.532;2022-11-20T16:30:40;3.60;;;2.33;;
75285;SDS011;63879;46.064;14.532;2022-11-20T16:33:09;5.07;;;2.83;;
75285;SDS011;63879;46.064;14.532;2022-11-20T16:35:36;3.00;;;1.65;;
75285;SDS011;63879;46.064;14.532;2022-11-20T16:38:02;3.38;;;1.40;;
75285;SDS011;63879;46.064;14.532;2022-11-20T16:40:27;3.38;;;1.77;;
75285;SDS011;63879;46.064;14.532;2022-11-20T16:42:53;4.35;;;2.95;;
75285;SDS011;63879;46.064;14.532;2022-11-20T16:45:18;5.55;;;2.85;;
75285;SDS011;63879;46.064;14.532;2022-11-20T16:47:44;4.55;;;3.00;;
75285;SDS011;63879;46.064;14.532;2022-11-20T16:50:09;4.78;;;3.50;;
75285;SDS011;63879;46.064;14.532;2022-11-20T16:52:35;4.90;;;2.85;;
75285;SDS011;63879;46.064;14.532;2022-11-20T16:55:04;5.38;;;3.35;;
75285;SDS011;63879;46.064;14.532;2022-11-20T16:57:30;5.38;;;3.05;;
75285;SDS011;63879;46.064;14.532;2022-11-20T16:59:59;6.43;;;3.97;;
75285;SDS011;63879;46.064;14.532;2022-11-20T17:02:25;5.88;;;3.63;;
75285;SDS011;63879;46.064;14.532;2022-11-20T17:04:53;6.35;;;3.67;;
75285;SDS011;63879;46.064;14.532;2022-11-20T17:07:19;7.30;;;4.10;;
75285;SDS011;63879;46.064;14.532;2022-11-20T17:09:44;6.70;;;4.38;;
75285;SDS011;63879;46.064;14.532;2022-11-20T17:12:10;5.32;;;3.53;;
75285;SDS011;63879;46.064;14.532;2022-11-20T17:14:36;6.95;;;4.38;;
75285;SDS011;63879;46.064;14.532;2022-11-20T17:17:01;6.50;;;4.18;;
75285;SDS011;63879;46.064;14.532;2022-11-20T17:19:27;8.82;;;4.97;;
75285;SDS011;63879;46.064;14.532;2022-11-20T17:21:53;8.13;;;4.82;;
75285;SDS011;63879;46.064;14.532;2022-11-20T17:24:18;7.60;;;5.05;;
75285;SDS011;63879;46.064;14.532;2022-11-20T17:26:44;8.70;;;4.95;;
75285;SDS011;63879;46.064;14.532;2022-11-20T17:29:11;8.43;;;4.80;;
75285;SDS011;63879;46.064;14.532;2022-11-20T17:31:40;9.15;;;5.53;;
75285;SDS011;63879;46.064;14.532;2022-11-20T17:34:06;10.55;;;6.55;;
75285;SDS011;63879;46.064;14.532;2022-11-20T17:36:33;7.90;;;5.65;;
75285;SDS011;63879;46.064;14.532;2022-11-20T17:38:59;8.77;;;5.25;;
75285;SDS011;63879;46.064;14.532;2022-11-20T17:41:25;8.82;;;4.78;;
75285;SDS011;63879;46.064;14.532;2022-11-20T17:43:53;9.18;;;5.20;;
75285;SDS011;63879;46.064;14.532;2022-11-20T17:46:20;8.73;;;5.57;;
75285;SDS011;63879;46.064;14.532;2022-11-20T17:48:46;7.90;;;4.95;;
75285;SDS011;63879;46.064;14.532;2022-11-20T17:53:42;7.93;;;5.05;;
75285;SDS011;63879;46.064;14.532;2022-11-20T17:56:09;9.38;;;5.95;;
75285;SDS011;63879;46.064;14.532;2022-11-20T17:58:53;9.48;;;5.13;;
75285;SDS011;63879;46.064;14.532;2022-11-20T18:01:19;8.70;;;5.10;;
75285;SDS011;63879;46.064;14.532;2022-11-20T18:03:47;8.13;;;5.10;;
75285;SDS011;63879;46.064;14.532;2022-11-20T18:06:15;7.40;;;4.93;;
75285;SDS011;63879;46.064;14.532;2022-11-20T18:08:44;10.35;;;6.35;;
75285;SDS011;63879;46.064;14.532;2022-11-20T18:11:12;10.50;;;6.60;;
75285;SDS011;63879;46.064;14.532;2022-11-20T18:13:40;13.70;;;7.25;;
75285;SDS011;63879;46.064;14.532;2022-11-20T18:16:25;7.82;;;5.07;;
75285;SDS011;63879;46.064;14.532;2022-11-20T18:18:55;8.90;;;5.47;;
75285;SDS011;63879;46.064;14.532;2022-11-20T18:21:22;9.32;;;5.55;;
75285;SDS011;63879;46.064;14.532;2022-11-20T18:23:48;7.30;;;4.88;;
75285;SDS011;63879;46.064;14.532;2022-11-20T18:26:13;7.57;;;5.55;;
75285;SDS011;63879;46.064;14.532;2022-11-20T18:28:39;8.65;;;5.50;;
75285;SDS011;63879;46.064;14.532;2022-11-20T18:31:05;9.45;;;4.95;;
75285;SDS011;63879;46.064;14.532;2022-11-20T18:33:31;9.13;;;5.55;;
75285;SDS011;63879;46.064;14.532;2022-11-20T18:35:57;10.60;;;6.28;;
75285;SDS011;63879;46.064;14.532;2022-11-20T18:38:22;9.02;;;5.85;;
75285;SDS011;63879;46.064;14.532;2022-11-20T18:40:48;9.13;;;5.68;;
75285;SDS011;63879;46.064;14.532;2022-11-20T18:43:13;12.13;;;7.10;;
75285;SDS011;63879;46.064;14.532;2022-11-20T18:46:03;10.73;;;6.30;;
75285;SDS011;63879;46.064;14.532;2022-11-20T18:48:32;11.32;;;7.43;;
75285;SDS011;63879;46.064;14.532;2022-11-20T18:51:06;13.20;;;7.22;;
75285;SDS011;63879;46.064;14.532;2022-11-20T18:53:35;11.82;;;7.60;;
75285;SDS011;63879;46.064;14.532;2022-11-20T18:56:04;11.98;;;7.95;;
75285;SDS011;63879;46.064;14.532;2022-11-20T18:58:31;11.10;;;7.78;;
75285;SDS011;63879;46.064;14.532;2022-11-20T19:01:06;14.25;;;8.48;;
75285;SDS011;63879;46.064;14.532;2022-11-20T19:03:32;13.95;;;9.27;;
75285;SDS011;63879;46.064;14.532;2022-11-20T19:05:57;14.45;;;7.93;;
75285;SDS011;63879;46.064;14.532;2022-11-20T19:08:23;12.97;;;8.77;;
75285;SDS011;63879;46.064;14.532;2022-11-20T19:10:48;11.65;;;7.50;;
75285;SDS011;63879;46.064;14.532;2022-11-20T19:13:14;14.02;;;8.20;;
75285;SDS011;63879;46.064;14.532;2022-11-20T19:15:39;12.60;;;8.10;;
75285;SDS011;63879;46.064;14.532;2022-11-20T19:18:04;13.75;;;8.77;;
75285;SDS011;63879;46.064;14.532;2022-11-20T19:20:30;13.57;;;8.65;;
75285;SDS011;63879;46.064;14.532;2022-11-20T19:22:56;14.60;;;7.88;;
75285;SDS011;63879;46.064;14.532;2022-11-20T19:25:21;11.33;;;7.00;;
75285;SDS011;63879;46.064;14.532;2022-11-20T19:27:47;13.43;;;8.07;;
75285;SDS011;63879;46.064;14.532;2022-11-20T19:30:12;11.67;;;8.33;;
75285;SDS011;63879;46.064;14.532;2022-11-20T19:32:38;11.30;;;7.78;;
75285;SDS011;63879;46.064;14.532;2022-11-20T19:35:03;11.83;;;7.80;;
75285;SDS011;63879;46.064;14.532;2022-11-20T19:37:31;13.93;;;8.00;;
75285;SDS011;63879;46.064;14.532;2022-11-20T19:39:58;13.60;;;7.60;;
75285;SDS011;63879;46.064;14.532;2022-11-20T19:42:23;13.35;;;8.52;;
75285;SDS011;63879;46.064;14.532;2022-11-20T19:44:49;14.63;;;9.77;;
75285;SDS011;63879;46.064;14.532;2022-11-20T19:47:14;12.88;;;8.68;;
75285;SDS011;63879;46.064;14.532;2022-11-20T19:49:40;13.57;;;8.30;;
75285;SDS011;63879;46.064;14.532;2022-11-20T19:52:06;14.55;;;8.90;;
75285;SDS011;63879;46.064;14.532;2022-11-20T19:54:31;15.17;;;9.20;;
75285;SDS011;63879;46.064;14.532;2022-11-20T19:56:57;15.40;;;10.32;;
75285;SDS011;63879;46.064;14.532;2022-11-20T19:59:22;22.75;;;13.73;;
75285;SDS011;63879;46.064;14.532;2022-11-20T20:01:48;18.77;;;12.10;;
75285;SDS011;63879;46.064;14.532;2022-11-20T20:04:13;18.30;;;9.77;;
75285;SDS011;63879;46.064;14.532;2022-11-20T20:06:39;15.15;;;9.52;;
75285;SDS011;63879;46.064;14.532;2022-11-20T20:09:06;16.77;;;9.13;;
75285;SDS011;63879;46.064;14.532;2022-11-20T20:11:34;18.75;;;11.20;;
75285;SDS011;63879;46.064;14.532;2022-11-20T20:14:00;16.67;;;9.80;;
75285;SDS011;63879;46.064;14.532;2022-11-20T20:16:27;18.60;;;11.13;;
75285;SDS011;63879;46.064;14.532;2022-11-20T20:18:53;17.00;;;10.20;;
75285;SDS011;63879;46.064;14.532;2022-11-20T20:21:22;15.57;;;8.90;;
75285;SDS011;63879;46.064;14.532;2022-11-20T20:23:51;16.40;;;10.25;;
75285;SDS011;63879;46.064;14.532;2022-11-20T20:26:18;14.70;;;9.18;;
75285;SDS011;63879;46.064;14.532;2022-11-20T20:28:43;17.80;;;9.90;;
75285;SDS011;63879;46.064;14.532;2022-11-20T20:31:13;20.33;;;10.80;;
75285;SDS011;63879;46.064;14.532;2022-11-20T20:33:40;17.70;;;9.57;;
75285;SDS011;63879;46.064;14.532;2022-11-20T20:36:07;19.23;;;11.10;;
75285;SDS011;63879;46.064;14.532;2022-11-20T20:38:34;16.65;;;9.95;;
75285;SDS011;63879;46.064;14.532;2022-11-20T20:40:59;14.03;;;9.23;;
75285;SDS011;63879;46.064;14.532;2022-11-20T20:43:25;18.42;;;11.52;;
75285;SDS011;63879;46.064;14.532;2022-11-20T20:45:51;18.63;;;11.23;;
75285;SDS011;63879;46.064;14.532;2022-11-20T20:48:17;18.38;;;11.02;;
75285;SDS011;63879;46.064;14.532;2022-11-20T20:50:54;17.25;;;9.77;;
75285;SDS011;63879;46.064;14.532;2022-11-20T20:53:20;22.25;;;12.40;;
75285;SDS011;63879;46.064;14.532;2022-11-20T20:55:55;22.08;;;11.73;;
75285;SDS011;63879;46.064;14.532;2022-11-20T20:58:21;35.97;;;14.60;;
75285;SDS011;63879;46.064;14.532;2022-11-20T21:00:47;24.55;;;12.70;;
75285;SDS011;63879;46.064;14.532;2022-11-20T21:03:12;43.00;;;16.20;;
75285;SDS011;63879;46.064;14.532;2022-11-20T21:05:38;34.72;;;13.77;;
75285;SDS011;63879;46.064;14.532;2022-11-20T21:08:03;33.55;;;15.32;;
75285;SDS011;63879;46.064;14.532;2022-11-20T21:10:48;47.10;;;17.40;;
75285;SDS011;63879;46.064;14.532;2022-11-20T21:13:13;29.70;;;15.23;;
75285;SDS011;63879;46.064;14.532;2022-11-20T21:15:39;34.17;;;16.77;;
75285;SDS011;63879;46.064;14.532;2022-11-20T21:18:05;30.02;;;14.88;;
75285;SDS011;63879;46.064;14.532;2022-11-20T21:20:32;26.92;;;13.65;;
75285;SDS011;63879;46.064;14.532;2022-11-20T21:23:16;31.60;;;15.20;;
75285;SDS011;63879;46.064;14.532;2022-11-20T21:25:41;28.92;;;15.20;;
75285;SDS011;63879;46.064;14.532;2022-11-20T21:28:07;26.40;;;14.38;;
75285;SDS011;63879;46.064;14.532;2022-11-20T21:30:33;24.30;;;13.45;;
75285;SDS011;63879;46.064;14.532;2022-11-20T21:32:58;26.92;;;12.85;;
75285;SDS011;63879;46.064;14.532;2022-11-20T21:35:24;22.27;;;11.75;;
75285;SDS011;63879;46.064;14.532;2022-11-20T21:37:49;20.42;;;12.57;;
75285;SDS011;63879;46.064;14.532;2022-11-20T21:40:15;22.53;;;13.00;;
75285;SDS011;63879;46.064;14.532;2022-11-20T21:42:40;21.83;;;12.43;;
75285;SDS011;63879;46.064;14.532;2022-11-20T21:45:06;23.77;;;14.13;;
75285;SDS011;63879;46.064;14.532;2022-11-20T21:47:32;28.27;;;14.18;;
75285;SDS011;63879;46.064;14.532;2022-11-20T21:49:57;31.93;;;17.23;;
75285;SDS011;63879;46.064;14.532;2022-11-20T21:52:23;31.38;;;15.82;;
75285;SDS011;63879;46.064;14.532;2022-11-20T21:54:48;27.10;;;12.70;;
75285;SDS011;63879;46.064;14.532;2022-11-20T21:57:13;24.43;;;11.73;;
75285;SDS011;63879;46.064;14.532;2022-11-20T21:59:39;30.30;;;14.25;;
